sensor_id;sensor_type;location;lat;lon;timestamp;pressure;altitude;pressure_sealevel;temperature;humidity
75701;BME280;64321;48.796;44.740;2024-03-23T00:55:51;101606.56;;;0.74;100.00
75701;BME280;64321;48.796;44.740;2024-03-23T01:00:52;101610.09;;;0.71;100.00
75701;BME280;64321;48.796;44.740;2024-03-23T01:05:54;101603.25;;;0.68;100.00
75701;BME280;64321;48.796;44.740;2024-03-23T01:10:56;101600.72;;;0.65;100.00
75701;BME280;64321;48.796;44.740;2024-03-23T01:15:58;101602.16;;;0.76;100.00
75701;BME280;64321;48.796;44.740;2024-03-23T01:20:59;101594.59;;;0.68;100.00
75701;BME280;64321;48.796;44.740;2024-03-23T01:26:01;101597.44;;;0.57;100.00
75701;BME280;64321;48.796;44.740;2024-03-23T01:31:02;101588.09;;;0.50;100.00
75701;BME280;64321;48.796;44.740;2024-03-23T01:36:04;101578.16;;;0.32;100.00
75701;BME280;64321;48.796;44.740;2024-03-23T01:41:05;101580.59;;;0.38;100.00
75701;BME280;64321;48.796;44.740;2024-03-23T01:46:07;101571.88;;;0.41;100.00
75701;BME280;64321;48.796;44.740;2024-03-23T01:51:09;101581.63;;;0.31;100.00
75701;BME280;64321;48.796;44.740;2024-03-23T01:56:10;101574.13;;;0.19;100.00
75701;BME280;64321;48.796;44.740;2024-03-23T02:01:12;101564.78;;;0.12;100.00
75701;BME280;64321;48.796;44.740;2024-03-23T02:06:13;101562.09;;;0.16;100.00
75701;BME280;64321;48.796;44.740;2024-03-23T02:11:14;101565.53;;;0.17;100.00
75701;BME280;64321;48.796;44.740;2024-03-23T02:16:16;101559.59;;;0.12;100.00
75701;BME280;64321;48.796;44.740;2024-03-23T02:21:17;101554.75;;;-0.04;100.00
75701;BME280;64321;48.796;44.740;2024-03-23T02:26:18;101551.09;;;0.04;100.00
75701;BME280;64321;48.796;44.740;2024-03-23T02:31:20;101546.50;;;0.16;100.00
75701;BME280;64321;48.796;44.740;2024-03-23T02:36:21;101551.94;;;0.06;100.00
75701;BME280;64321;48.796;44.740;2024-03-23T02:41:23;101562.94;;;0.17;100.00
75701;BME280;64321;48.796;44.740;2024-03-23T02:46:24;101568.44;;;0.03;100.00
75701;BME280;64321;48.796;44.740;2024-03-23T02:51:26;101565.94;;;0.00;100.00
75701;BME280;64321;48.796;44.740;2024-03-23T02:56:27;101569.25;;;0.05;100.00
75701;BME280;64321;48.796;44.740;2024-03-23T03:01:28;101570.03;;;0.09;100.00
75701;BME280;64321;48.796;44.740;2024-03-23T03:06:30;101575.75;;;0.23;100.00
75701;BME280;64321;48.796;44.740;2024-03-23T03:11:31;101571.38;;;0.25;100.00
75701;BME280;64321;48.796;44.740;2024-03-23T03:16:33;101577.25;;;0.33;100.00
75701;BME280;64321;48.796;44.740;2024-03-23T03:21:34;101577.50;;;0.22;100.00
75701;BME280;64321;48.796;44.740;2024-03-23T03:26:36;101574.50;;;0.02;100.00
75701;BME280;64321;48.796;44.740;2024-03-23T03:31:39;101577.53;;;0.21;100.00
75701;BME280;64321;48.796;44.740;2024-03-23T03:36:40;101572.03;;;-0.03;100.00
75701;BME280;64321;48.796;44.740;2024-03-23T03:41:42;101591.25;;;0.27;100.00
75701;BME280;64321;48.796;44.740;2024-03-23T03:46:43;101588.34;;;0.03;100.00
75701;BME280;64321;48.796;44.740;2024-03-23T03:51:44;101588.16;;;0.12;100.00
75701;BME280;64321;48.796;44.740;2024-03-23T03:56:46;101601.34;;;0.40;100.00
75701;BME280;64321;48.796;44.740;2024-03-23T04:01:47;101598.19;;;0.62;100.00
75701;BME280;64321;48.796;44.740;2024-03-23T04:06:49;101601.53;;;0.67;100.00
75701;BME280;64321;48.796;44.740;2024-03-23T04:11:50;101599.28;;;0.88;100.00
75701;BME280;64321;48.796;44.740;2024-03-23T04:16:51;101596.44;;;0.97;100.00
75701;BME280;64321;48.796;44.740;2024-03-23T04:21:52;101592.03;;;0.99;100.00
75701;BME280;64321;48.796;44.740;2024-03-23T04:26:54;101596.81;;;1.14;100.00
75701;BME280;64321;48.796;44.740;2024-03-23T04:31:55;101604.75;;;1.10;100.00
75701;BME280;64321;48.796;44.740;2024-03-23T04:36:56;101605.91;;;1.30;100.00
75701;BME280;64321;48.796;44.740;2024-03-23T04:41:58;101610.66;;;1.47;100.00
75701;BME280;64321;48.796;44.740;2024-03-23T04:47:00;101616.28;;;1.63;100.00
75701;BME280;64321;48.796;44.740;2024-03-23T04:52:03;101631.72;;;1.69;100.00
75701;BME280;64321;48.796;44.740;2024-03-23T04:57:05;101633.34;;;1.73;100.00
75701;BME280;64321;48.796;44.740;2024-03-23T05:02:06;101637.44;;;1.82;100.00
75701;BME280;64321;48.796;44.740;2024-03-23T05:07:08;101634.22;;;2.01;100.00
75701;BME280;64321;48.796;44.740;2024-03-23T05:12:09;101634.59;;;1.89;100.00
75701;BME280;64321;48.796;44.740;2024-03-23T05:17:10;101638.91;;;1.90;100.00
75701;BME280;64321;48.796;44.740;2024-03-23T05:22:12;101637.00;;;2.25;100.00
75701;BME280;64321;48.796;44.740;2024-03-23T05:27:13;101642.59;;;2.40;100.00
75701;BME280;64321;48.796;44.740;2024-03-23T05:32:14;101645.50;;;2.31;100.00
75701;BME280;64321;48.796;44.740;2024-03-23T05:37:16;101653.50;;;2.52;100.00
75701;BME280;64321;48.796;44.740;2024-03-23T05:42:18;101653.69;;;2.47;100.00
75701;BME280;64321;48.796;44.740;2024-03-23T05:47:19;101656.09;;;2.79;100.00
75701;BME280;64321;48.796;44.740;2024-03-23T05:52:20;101658.81;;;2.76;100.00
75701;BME280;64321;48.796;44.740;2024-03-23T05:57:22;101664.06;;;2.75;100.00
75701;BME280;64321;48.796;44.740;2024-03-23T06:02:24;101661.47;;;3.01;100.00
75701;BME280;64321;48.796;44.740;2024-03-23T06:07:25;101659.25;;;3.16;100.00
75701;BME280;64321;48.796;44.740;2024-03-23T06:12:26;101652.34;;;3.13;100.00
75701;BME280;64321;48.796;44.740;2024-03-23T06:17:28;101651.25;;;3.20;100.00
75701;BME280;64321;48.796;44.740;2024-03-23T06:22:29;101650.13;;;3.27;100.00
75701;BME280;64321;48.796;44.740;2024-03-23T06:27:31;101643.44;;;3.43;100.00
75701;BME280;64321;48.796;44.740;2024-03-23T06:32:33;101648.38;;;3.76;100.00
75701;BME280;64321;48.796;44.740;2024-03-23T06:37:38;101639.50;;;3.80;100.00
75701;BME280;64321;48.796;44.740;2024-03-23T06:42:40;101642.56;;;3.68;100.00
75701;BME280;64321;48.796;44.740;2024-03-23T06:47:41;101638.81;;;3.98;100.00
75701;BME280;64321;48.796;44.740;2024-03-23T06:52:42;101640.97;;;4.10;100.00
75701;BME280;64321;48.796;44.740;2024-03-23T06:57:44;101636.66;;;4.31;100.00
75701;BME280;64321;48.796;44.740;2024-03-23T07:02:45;101632.59;;;4.46;100.00
75701;BME280;64321;48.796;44.740;2024-03-23T07:07:46;101630.41;;;4.35;100.00
75701;BME280;64321;48.796;44.740;2024-03-23T07:12:48;101624.31;;;4.57;100.00
75701;BME280;64321;48.796;44.740;2024-03-23T07:17:49;101613.81;;;4.78;100.00
75701;BME280;64321;48.796;44.740;2024-03-23T07:22:51;101615.13;;;5.09;100.00
75701;BME280;64321;48.796;44.740;2024-03-23T07:27:55;101611.00;;;5.23;100.00
75701;BME280;64321;48.796;44.740;2024-03-23T07:32:57;101601.78;;;5.15;100.00
75701;BME280;64321;48.796;44.740;2024-03-23T07:37:58;101596.47;;;5.37;100.00
75701;BME280;64321;48.796;44.740;2024-03-23T07:43:06;101579.63;;;5.80;100.00
75701;BME280;64321;48.796;44.740;2024-03-23T07:48:07;101588.22;;;5.83;92.81
75701;BME280;64321;48.796;44.740;2024-03-23T07:53:09;101583.31;;;6.13;92.70
75701;BME280;64321;48.796;44.740;2024-03-23T07:58:10;101574.84;;;6.08;89.71
75701;BME280;64321;48.796;44.740;2024-03-23T08:03:12;101559.03;;;6.27;86.69
75701;BME280;64321;48.796;44.740;2024-03-23T08:08:13;101559.78;;;6.48;79.00
75701;BME280;64321;48.796;44.740;2024-03-23T08:13:14;101565.28;;;6.60;80.64
75701;BME280;64321;48.796;44.740;2024-03-23T08:18:16;101548.53;;;6.80;80.14
75701;BME280;64321;48.796;44.740;2024-03-23T08:23:17;101560.59;;;7.00;79.20
75701;BME280;64321;48.796;44.740;2024-03-23T08:28:19;101555.72;;;7.27;76.10
75701;BME280;64321;48.796;44.740;2024-03-23T08:33:20;101551.31;;;7.43;70.07
75701;BME280;64321;48.796;44.740;2024-03-23T08:38:26;101551.31;;;7.43;79.09
75701;BME280;64321;48.796;44.740;2024-03-23T08:43:28;101553.06;;;7.27;79.54
75701;BME280;64321;48.796;44.740;2024-03-23T08:48:30;101550.50;;;7.10;82.91
75701;BME280;64321;48.796;44.740;2024-03-23T08:53:32;101536.50;;;7.42;78.61
75701;BME280;64321;48.796;44.740;2024-03-23T08:58:35;101529.84;;;7.68;73.44
75701;BME280;64321;48.796;44.740;2024-03-23T09:03:37;101520.25;;;7.67;73.54
75701;BME280;64321;48.796;44.740;2024-03-23T09:08:39;101510.66;;;7.82;70.71
75701;BME280;64321;48.796;44.740;2024-03-23T09:13:41;101502.72;;;8.13;66.22
75701;BME280;64321;48.796;44.740;2024-03-23T09:18:43;101504.50;;;8.13;64.54
75701;BME280;64321;48.796;44.740;2024-03-23T09:23:45;101500.50;;;8.21;62.75
75701;BME280;64321;48.796;44.740;2024-03-23T09:28:48;101491.78;;;8.51;63.19
75701;BME280;64321;48.796;44.740;2024-03-23T09:33:50;101484.09;;;8.62;61.97
75701;BME280;64321;48.796;44.740;2024-03-23T09:38:51;101485.03;;;8.61;59.61
75701;BME280;64321;48.796;44.740;2024-03-23T09:43:53;101480.16;;;8.97;58.15
75701;BME280;64321;48.796;44.740;2024-03-23T09:48:55;101471.34;;;8.84;58.10
75701;BME280;64321;48.796;44.740;2024-03-23T09:53:57;101468.72;;;9.13;57.90
75701;BME280;64321;48.796;44.740;2024-03-23T09:59:02;101458.31;;;9.38;57.05
75701;BME280;64321;48.796;44.740;2024-03-23T10:04:04;101449.94;;;9.46;55.73
75701;BME280;64321;48.796;44.740;2024-03-23T10:09:17;101448.09;;;9.60;55.62
75701;BME280;64321;48.796;44.740;2024-03-23T10:14:29;101435.13;;;9.84;54.63
75701;BME280;64321;48.796;44.740;2024-03-23T10:19:31;101445.03;;;9.81;54.35
75701;BME280;64321;48.796;44.740;2024-03-23T10:24:32;101436.03;;;10.10;54.64
75701;BME280;64321;48.796;44.740;2024-03-23T10:29:34;101435.91;;;10.38;53.09
75701;BME280;64321;48.796;44.740;2024-03-23T10:34:37;101419.94;;;10.78;53.02
75701;BME280;64321;48.796;44.740;2024-03-23T10:39:40;101427.94;;;11.14;51.60
75701;BME280;64321;48.796;44.740;2024-03-23T10:44:41;101425.19;;;11.53;50.21
75701;BME280;64321;48.796;44.740;2024-03-23T10:49:43;101410.09;;;11.42;50.27
75701;BME280;64321;48.796;44.740;2024-03-23T10:54:46;101410.66;;;11.58;49.86
75701;BME280;64321;48.796;44.740;2024-03-23T10:59:49;101409.00;;;11.21;51.24
75701;BME280;64321;48.796;44.740;2024-03-23T11:04:50;101412.53;;;11.32;49.52
75701;BME280;64321;48.796;44.740;2024-03-23T11:09:53;101400.59;;;11.63;49.88
75701;BME280;64321;48.796;44.740;2024-03-23T11:15:05;101389.53;;;12.17;49.37
75701;BME280;64321;48.796;44.740;2024-03-23T11:20:07;101401.09;;;11.68;49.45
75701;BME280;64321;48.796;44.740;2024-03-23T11:25:20;101394.78;;;11.58;49.40
75701;BME280;64321;48.796;44.740;2024-03-23T11:30:28;101397.31;;;10.99;50.43
75701;BME280;64321;48.796;44.740;2024-03-23T11:35:39;101397.66;;;11.55;49.53
75701;BME280;64321;48.796;44.740;2024-03-23T11:40:42;101396.00;;;10.56;51.57
75701;BME280;64321;48.796;44.740;2024-03-23T11:45:50;101391.75;;;10.66;53.01
75701;BME280;64321;48.796;44.740;2024-03-23T11:50:57;101386.25;;;10.69;52.24
75701;BME280;64321;48.796;44.740;2024-03-23T11:55:59;101387.13;;;10.57;53.42
75701;BME280;64321;48.796;44.740;2024-03-23T12:01:04;101378.66;;;10.52;53.46
75701;BME280;64321;48.796;44.740;2024-03-23T12:06:06;101382.34;;;10.49;54.08
75701;BME280;64321;48.796;44.740;2024-03-23T12:11:12;101382.03;;;10.28;53.92
75701;BME280;64321;48.796;44.740;2024-03-23T12:21:17;101373.97;;;10.17;54.42
75701;BME280;64321;48.796;44.740;2024-03-23T12:26:18;101365.00;;;10.58;53.42
75701;BME280;64321;48.796;44.740;2024-03-23T12:31:20;101369.47;;;10.44;53.62
75701;BME280;64321;48.796;44.740;2024-03-23T12:36:23;101373.31;;;10.01;54.77
75701;BME280;64321;48.796;44.740;2024-03-23T12:41:25;101373.59;;;9.84;55.20
75701;BME280;64321;48.796;44.740;2024-03-23T12:46:26;101382.41;;;9.70;55.98
75701;BME280;64321;48.796;44.740;2024-03-23T12:51:28;101374.97;;;9.89;56.45
75701;BME280;64321;48.796;44.740;2024-03-23T12:56:29;101369.44;;;9.67;56.39
75701;BME280;64321;48.796;44.740;2024-03-23T13:01:31;101375.94;;;9.61;57.59
75701;BME280;64321;48.796;44.740;2024-03-23T13:06:34;101374.25;;;8.92;60.18
75701;BME280;64321;48.796;44.740;2024-03-23T13:11:36;101374.59;;;9.00;60.12
75701;BME280;64321;48.796;44.740;2024-03-23T13:16:37;101368.88;;;9.35;59.85
75701;BME280;64321;48.796;44.740;2024-03-23T13:21:39;101365.34;;;9.22;61.07
75701;BME280;64321;48.796;44.740;2024-03-23T13:26:40;101375.31;;;9.31;62.64
75701;BME280;64321;48.796;44.740;2024-03-23T13:31:42;101367.50;;;8.74;65.34
75701;BME280;64321;48.796;44.740;2024-03-23T13:36:44;101371.59;;;9.07;64.32
75701;BME280;64321;48.796;44.740;2024-03-23T13:41:46;101365.38;;;9.08;64.99
75701;BME280;64321;48.796;44.740;2024-03-23T13:46:47;101364.13;;;8.72;69.75
75701;BME280;64321;48.796;44.740;2024-03-23T13:51:49;101370.59;;;8.66;70.85
75701;BME280;64321;48.796;44.740;2024-03-23T13:56:51;101365.22;;;8.82;72.05
75701;BME280;64321;48.796;44.740;2024-03-23T14:01:53;101370.31;;;8.57;73.48
75701;BME280;64321;48.796;44.740;2024-03-23T14:06:54;101372.00;;;8.44;77.00
75701;BME280;64321;48.796;44.740;2024-03-23T14:11:56;101377.66;;;8.52;76.80
75701;BME280;64321;48.796;44.740;2024-03-23T14:16:57;101380.47;;;8.63;75.54
75701;BME280;64321;48.796;44.740;2024-03-23T14:21:58;101391.00;;;8.34;76.04
75701;BME280;64321;48.796;44.740;2024-03-23T14:26:59;101391.56;;;8.40;76.91
75701;BME280;64321;48.796;44.740;2024-03-23T14:32:04;101390.84;;;8.22;78.63
75701;BME280;64321;48.796;44.740;2024-03-23T14:37:06;101388.97;;;8.24;79.01
75701;BME280;64321;48.796;44.740;2024-03-23T14:42:07;101397.47;;;8.13;79.05
75701;BME280;64321;48.796;44.740;2024-03-23T14:47:11;101400.09;;;7.99;76.85
75701;BME280;64321;48.796;44.740;2024-03-23T14:52:14;101416.38;;;7.90;80.08
75701;BME280;64321;48.796;44.740;2024-03-23T14:57:15;101416.81;;;7.52;83.34
75701;BME280;64321;48.796;44.740;2024-03-23T15:02:16;101422.88;;;7.53;83.90
75701;BME280;64321;48.796;44.740;2024-03-23T15:07:17;101405.06;;;7.74;80.42
75701;BME280;64321;48.796;44.740;2024-03-23T15:12:20;101405.22;;;7.71;80.05
75701;BME280;64321;48.796;44.740;2024-03-23T15:17:22;101402.97;;;7.64;80.11
75701;BME280;64321;48.796;44.740;2024-03-23T15:22:24;101393.41;;;7.48;82.29
75701;BME280;64321;48.796;44.740;2024-03-23T15:27:25;101398.69;;;7.32;85.82
75701;BME280;64321;48.796;44.740;2024-03-23T15:32:27;101404.78;;;7.32;88.05
75701;BME280;64321;48.796;44.740;2024-03-23T15:37:28;101412.75;;;7.15;85.53
75701;BME280;64321;48.796;44.740;2024-03-23T15:42:32;101406.88;;;6.94;88.63
75701;BME280;64321;48.796;44.740;2024-03-23T15:47:35;101415.78;;;7.08;88.73
75701;BME280;64321;48.796;44.740;2024-03-23T15:52:36;101414.75;;;6.94;89.47
75701;BME280;64321;48.796;44.740;2024-03-23T15:57:40;101422.19;;;6.86;90.23
75701;BME280;64321;48.796;44.740;2024-03-23T16:02:41;101434.44;;;6.86;91.24
75701;BME280;64321;48.796;44.740;2024-03-23T16:07:43;101433.66;;;6.68;92.33
75701;BME280;64321;48.796;44.740;2024-03-23T16:12:44;101449.47;;;6.67;94.52
75701;BME280;64321;48.796;44.740;2024-03-23T16:17:45;101471.56;;;6.63;92.75
75701;BME280;64321;48.796;44.740;2024-03-23T16:22:47;101478.97;;;6.72;92.89
75701;BME280;64321;48.796;44.740;2024-03-23T16:27:48;101478.91;;;6.56;91.19
75701;BME280;64321;48.796;44.740;2024-03-23T16:32:49;101486.06;;;6.52;93.76
75701;BME280;64321;48.796;44.740;2024-03-23T16:37:51;101492.31;;;6.50;97.04
75701;BME280;64321;48.796;44.740;2024-03-23T16:42:52;101499.97;;;6.37;99.13
75701;BME280;64321;48.796;44.740;2024-03-23T16:47:54;101492.66;;;6.44;95.26
75701;BME280;64321;48.796;44.740;2024-03-23T16:52:55;101498.13;;;6.56;94.10
75701;BME280;64321;48.796;44.740;2024-03-23T16:57:57;101497.28;;;6.39;95.07
75701;BME280;64321;48.796;44.740;2024-03-23T17:02:58;101494.72;;;6.20;96.79
75701;BME280;64321;48.796;44.740;2024-03-23T17:07:59;101496.66;;;6.34;96.74
75701;BME280;64321;48.796;44.740;2024-03-23T17:13:01;101496.00;;;6.11;98.89
75701;BME280;64321;48.796;44.740;2024-03-23T17:18:02;101494.31;;;6.10;99.54
75701;BME280;64321;48.796;44.740;2024-03-23T17:23:04;101495.47;;;5.86;100.00
75701;BME280;64321;48.796;44.740;2024-03-23T17:28:08;101500.16;;;5.79;100.00
75701;BME280;64321;48.796;44.740;2024-03-23T17:33:13;101505.19;;;5.84;100.00
75701;BME280;64321;48.796;44.740;2024-03-23T17:38:15;101498.94;;;6.05;100.00
75701;BME280;64321;48.796;44.740;2024-03-23T17:43:16;101492.16;;;6.01;100.00
75701;BME280;64321;48.796;44.740;2024-03-23T17:48:18;101505.13;;;6.04;100.00
75701;BME280;64321;48.796;44.740;2024-03-23T17:53:19;101504.50;;;6.16;100.00
75701;BME280;64321;48.796;44.740;2024-03-23T17:58:20;101499.56;;;6.10;100.00
75701;BME280;64321;48.796;44.740;2024-03-23T18:03:22;101499.66;;;6.09;100.00
75701;BME280;64321;48.796;44.740;2024-03-23T18:08:23;101496.31;;;6.05;100.00
75701;BME280;64321;48.796;44.740;2024-03-23T18:13:24;101492.94;;;6.03;100.00
75701;BME280;64321;48.796;44.740;2024-03-23T18:18:26;101485.97;;;6.02;100.00
75701;BME280;64321;48.796;44.740;2024-03-23T18:23:28;101487.53;;;6.06;100.00
75701;BME280;64321;48.796;44.740;2024-03-23T18:28:29;101473.25;;;6.12;100.00
75701;BME280;64321;48.796;44.740;2024-03-23T18:33:39;101469.34;;;6.20;98.33
75701;BME280;64321;48.796;44.740;2024-03-23T18:38:41;101466.09;;;6.15;98.96
75701;BME280;64321;48.796;44.740;2024-03-23T18:43:49;101471.34;;;6.15;98.81
75701;BME280;64321;48.796;44.740;2024-03-23T18:48:51;101464.38;;;6.14;99.01
75701;BME280;64321;48.796;44.740;2024-03-23T18:53:56;101472.09;;;6.00;100.00
75701;BME280;64321;48.796;44.740;2024-03-23T18:59:02;101482.44;;;6.03;100.00
75701;BME280;64321;48.796;44.740;2024-03-23T19:04:04;101484.44;;;5.79;100.00
75701;BME280;64321;48.796;44.740;2024-03-23T19:09:05;101489.13;;;5.73;100.00
75701;BME280;64321;48.796;44.740;2024-03-23T19:14:07;101476.59;;;5.61;100.00
75701;BME280;64321;48.796;44.740;2024-03-23T19:19:09;101479.06;;;5.64;100.00
75701;BME280;64321;48.796;44.740;2024-03-23T19:24:10;101467.09;;;5.58;100.00
75701;BME280;64321;48.796;44.740;2024-03-23T19:29:12;101471.16;;;5.46;100.00
75701;BME280;64321;48.796;44.740;2024-03-23T19:34:13;101461.88;;;5.39;100.00
75701;BME280;64321;48.796;44.740;2024-03-23T19:39:15;101473.72;;;5.29;100.00
75701;BME280;64321;48.796;44.740;2024-03-23T19:44:16;101475.69;;;5.24;100.00
75701;BME280;64321;48.796;44.740;2024-03-23T19:49:18;101462.38;;;5.47;100.00
75701;BME280;64321;48.796;44.740;2024-03-23T19:54:19;101463.03;;;5.52;100.00
75701;BME280;64321;48.796;44.740;2024-03-23T19:59:21;101465.34;;;5.58;100.00
75701;BME280;64321;48.796;44.740;2024-03-23T20:04:22;101463.81;;;5.54;100.00
75701;BME280;64321;48.796;44.740;2024-03-23T20:09:24;101467.88;;;5.60;100.00
75701;BME280;64321;48.796;44.740;2024-03-23T20:14:26;101460.22;;;5.74;100.00
75701;BME280;64321;48.796;44.740;2024-03-23T20:19:29;101461.94;;;5.56;100.00
75701;BME280;64321;48.796;44.740;2024-03-23T20:24:31;101456.00;;;5.72;100.00
75701;BME280;64321;48.796;44.740;2024-03-23T20:29:32;101461.06;;;5.75;100.00
75701;BME280;64321;48.796;44.740;2024-03-23T20:34:34;101450.91;;;5.86;100.00
75701;BME280;64321;48.796;44.740;2024-03-23T20:39:35;101445.31;;;5.93;100.00
75701;BME280;64321;48.796;44.740;2024-03-23T20:44:37;101444.03;;;6.02;99.51
75701;BME280;64321;48.796;44.740;2024-03-23T20:49:38;101437.88;;;6.20;96.64
75701;BME280;64321;48.796;44.740;2024-03-23T20:54:40;101439.94;;;6.14;98.01
75701;BME280;64321;48.796;44.740;2024-03-23T20:59:42;101423.63;;;6.09;100.00
75701;BME280;64321;48.796;44.740;2024-03-23T21:04:44;101429.16;;;6.03;99.56
75701;BME280;64321;48.796;44.740;2024-03-23T21:09:46;101425.53;;;6.22;95.38
75701;BME280;64321;48.796;44.740;2024-03-23T21:14:49;101418.53;;;6.06;96.93
75701;BME280;64321;48.796;44.740;2024-03-23T21:19:51;101430.00;;;6.20;96.86
75701;BME280;64321;48.796;44.740;2024-03-23T21:24:52;101427.53;;;6.17;95.18
75701;BME280;64321;48.796;44.740;2024-03-23T21:29:53;101425.53;;;6.22;94.57
75701;BME280;64321;48.796;44.740;2024-03-23T21:34:55;101429.94;;;6.22;95.64
75701;BME280;64321;48.796;44.740;2024-03-23T21:39:56;101423.69;;;6.24;95.07
75701;BME280;64321;48.796;44.740;2024-03-23T21:44:58;101423.75;;;6.06;97.94
75701;BME280;64321;48.796;44.740;2024-03-23T21:49:59;101413.72;;;6.14;97.65
75701;BME280;64321;48.796;44.740;2024-03-23T21:55:00;101416.66;;;6.08;99.43
75701;BME280;64321;48.796;44.740;2024-03-23T22:00:04;101422.66;;;6.10;99.02
75701;BME280;64321;48.796;44.740;2024-03-23T22:05:13;101413.56;;;6.00;100.00
75701;BME280;64321;48.796;44.740;2024-03-23T22:10:15;101406.38;;;5.86;100.00
75701;BME280;64321;48.796;44.740;2024-03-23T22:15:16;101409.41;;;5.96;100.00
75701;BME280;64321;48.796;44.740;2024-03-23T22:20:19;101411.50;;;5.89;100.00
75701;BME280;64321;48.796;44.740;2024-03-23T22:25:22;101407.09;;;5.89;100.00
75701;BME280;64321;48.796;44.740;2024-03-23T22:30:23;101408.06;;;5.87;100.00
75701;BME280;64321;48.796;44.740;2024-03-23T22:35:25;101411.59;;;5.69;100.00
75701;BME280;64321;48.796;44.740;2024-03-23T22:40:27;101408.81;;;5.72;100.00
75701;BME280;64321;48.796;44.740;2024-03-23T22:45:30;101399.69;;;5.62;100.00
75701;BME280;64321;48.796;44.740;2024-03-23T22:50:31;101405.78;;;5.62;100.00
75701;BME280;64321;48.796;44.740;2024-03-23T22:55:32;101402.69;;;5.54;100.00
75701;BME280;64321;48.796;44.740;2024-03-23T23:00:33;101394.84;;;5.54;100.00
75701;BME280;64321;48.796;44.740;2024-03-23T23:05:35;101393.81;;;5.56;100.00
75701;BME280;64321;48.796;44.740;2024-03-23T23:10:38;101386.59;;;5.62;100.00
75701;BME280;64321;48.796;44.740;2024-03-23T23:15:39;101400.94;;;5.54;100.00
75701;BME280;64321;48.796;44.740;2024-03-23T23:20:41;101394.72;;;5.55;100.00
75701;BME280;64321;48.796;44.740;2024-03-23T23:25:43;101402.44;;;5.58;100.00
75701;BME280;64321;48.796;44.740;2024-03-23T23:30:54;101401.06;;;5.51;100.00
75701;BME280;64321;48.796;44.740;2024-03-23T23:35:55;101393.28;;;5.50;100.00
75701;BME280;64321;48.796;44.740;2024-03-23T23:40:57;101395.25;;;5.45;100.00
75701;BME280;64321;48.796;44.740;2024-03-23T23:45:58;101407.22;;;5.50;100.00
75701;BME280;64321;48.796;44.740;2024-03-23T23:50:59;101397.06;;;5.62;100.00
75701;BME280;64321;48.796;44.740;2024-03-23T23:56:01;101386.72;;;5.58;100.00
